Time;durP1;ratioP1;P1;durP2;ratioP2;P2;SDS_P1;SDS_P2;PMS_P1;PMS_P2;Temp;Humidity;BMP_temperature;BMP_pressure;BME280_temperature;BME280_humidity;BME280_pressure;Samples;Min_cycle;Max_cycle;Signal;HPM_P1;HPM_P2
2022/12/20 00:01:19;;;;;;;22.13;9.23;;;51.40;2227.20;;;;;;4850588;29;20125;-80
2022/12/20 00:03:45;;;;;;;18.90;8.98;;;51.30;2227.20;;;;;;4859539;29;20132;-80
2022/12/20 00:06:11;;;;;;;;;;;51.30;2227.20;;;;;;4850248;29;20026;-79
2022/12/20 00:08:38;;;;;;;25.98;8.95;;;51.30;2227.20;;;;;;4850132;29;19908;-81
2022/12/20 00:11:05;;;;;;;24.45;9.88;;;51.40;2227.20;;;;;;4845232;29;20038;-81
2022/12/20 00:13:31;;;;;;;26.35;10.13;;;51.30;2227.20;;;;;;4850246;29;20026;-81
2022/12/20 00:16:05;;;;;;;;;;;51.30;2227.20;;;;;;4850581;29;20034;-81
2022/12/20 00:18:31;;;;;;;27.85;12.50;;;51.30;2227.20;;;;;;4863241;29;19956;-80
2022/12/20 00:20:57;;;;;;;;;;;51.30;2227.20;;;;;;4851280;29;20030;-80
2022/12/20 00:23:23;;;;;;;27.10;9.45;;;51.30;2227.20;;;;;;4851616;29;19908;-79
2022/12/20 00:25:48;;;;;;;;;;;51.30;2227.20;;;;;;4850755;29;20037;-81
2022/12/20 00:28:14;;;;;;;17.83;8.27;;;51.30;2227.20;;;;;;4851627;29;20379;-79
2022/12/20 00:30:39;;;;;;;;;;;51.30;2227.20;;;;;;4853619;29;20065;-79
2022/12/20 00:33:05;;;;;;;26.60;11.38;;;51.20;2227.20;;;;;;4851292;29;19908;-80
2022/12/20 00:35:31;;;;;;;;;;;51.30;2227.20;;;;;;4850423;29;20522;-80
2022/12/20 00:37:56;;;;;;;32.00;10.20;;;51.30;2227.20;;;;;;4850085;29;19923;-81
2022/12/20 00:40:22;;;;;;;;;;;51.30;2227.20;;;;;;4854473;29;20030;-81
2022/12/20 00:42:47;;;;;;;24.60;11.70;;;51.30;2227.20;;;;;;4851304;29;20281;-80
2022/12/20 00:45:13;;;;;;;;;;;51.30;2227.20;;;;;;4852856;29;20086;-79
2022/12/20 00:47:39;;;;;;;17.55;7.78;;;51.30;2227.20;;;;;;4854691;29;20338;-79
2022/12/20 00:50:05;;;;;;;;;;;51.30;2227.20;;;;;;4855173;29;20048;-80
2022/12/20 00:52:30;;;;;;;32.42;10.95;;;51.20;2227.20;;;;;;4853500;29;20273;-81
2022/12/20 00:54:56;;;;;;;;;;;51.20;2227.20;;;;;;4853092;29;20057;-80
2022/12/20 00:57:22;;;;;;;24.23;11.25;;;51.20;2227.20;;;;;;4844088;29;19920;-80
2022/12/20 00:59:47;;;;;;;;;;;51.20;2227.20;;;;;;4867120;29;20390;-80
2022/12/20 01:02:13;;;;;;;23.48;10.07;;;51.20;2227.20;;;;;;4844060;29;19971;-78
2022/12/20 01:04:39;;;;;;;;;;;51.20;2227.20;;;;;;4843939;29;20106;-79
2022/12/20 01:07:04;;;;;;;24.70;10.18;;;51.20;2227.20;;;;;;4843609;29;19912;-80
2022/12/20 01:09:30;;;;;;;;;;;51.20;2227.20;;;;;;4843783;29;20030;-78
2022/12/20 01:11:56;;;;;;;23.95;10.50;;;51.20;2227.20;;;;;;4843442;29;19991;-80
2022/12/20 01:14:21;;;;;;;;;;;51.20;2227.20;;;;;;4843909;29;20046;-79
2022/12/20 01:16:47;;;;;;;28.55;10.98;;;51.20;2227.20;;;;;;4843293;29;20369;-80
2022/12/20 01:19:14;;;;;;;;;;;51.20;2227.20;;;;;;4843990;29;20487;-80
2022/12/20 01:21:43;;;;;;;26.67;9.77;;;51.20;2227.20;;;;;;4843574;29;19918;-79
2022/12/20 01:24:13;;;;;;;31.13;12.52;;;51.20;2227.20;;;;;;4843148;29;20030;-80
2022/12/20 01:26:39;;;;;;;28.90;12.50;;;51.20;2227.20;;;;;;4843186;29;20032;-81
2022/12/20 01:29:05;;;;;;;;;;;51.20;2227.20;;;;;;4843611;29;20033;-79
2022/12/20 01:31:31;;;;;;;25.20;12.52;;;51.20;2227.20;;;;;;4843207;29;19974;-80
2022/12/20 01:33:57;;;;;;;26.75;11.10;;;26.50;2201.60;;;;;;4842781;29;20029;-81
2022/12/20 01:36:28;;;;;;;28.90;12.35;;;26.50;2201.60;;;;;;4843034;29;20030;-83
2022/12/20 01:39:02;;;;;;;24.17;12.00;;;26.50;2201.60;;;;;;4843410;29;20491;-80
2022/12/20 01:41:30;;;;;;;26.55;10.77;;;26.50;2201.60;;;;;;4842994;29;20032;-80
2022/12/20 01:44:01;;;;;;;25.83;11.00;;;26.50;2201.60;;;;;;4843124;29;20429;-80
2022/12/20 01:46:32;;;;;;;24.83;9.05;;;26.50;2201.60;;;;;;4842836;29;20102;-80
2022/12/20 01:49:00;;;;;;;30.58;12.30;;;26.50;2201.60;;;;;;4838324;29;20078;-80
2022/12/20 01:51:29;;;;;;;29.60;13.52;;;26.50;2201.60;;;;;;4834803;29;20062;-80
2022/12/20 01:54:00;;;;;;;22.58;10.35;;;26.50;2201.60;;;;;;4842815;29;20086;-80
2022/12/20 01:56:26;;;;;;;25.52;10.50;;;26.50;2201.60;;;;;;4842808;29;20413;-79
2022/12/20 01:58:53;;;;;;;;;;;26.50;2201.60;;;;;;4837864;29;20053;-79
2022/12/20 02:01:21;;;;;;;34.60;9.75;;;26.50;2201.60;;;;;;4839791;29;20318;-80
2022/12/20 02:03:48;;;;;;;27.55;12.07;;;26.40;2201.60;;;;;;4842075;29;20026;-80
2022/12/20 02:06:20;;;;;;;29.75;12.32;;;26.40;2201.60;;;;;;4836507;29;20030;-81
2022/12/20 02:08:48;;;;;;;30.15;11.85;;;26.50;2201.60;;;;;;4831920;29;20033;-78
2022/12/20 02:11:52;;;;;;;30.45;13.25;;;26.40;2201.60;;;;;;4841876;29;20029;-80
2022/12/20 02:14:42;;;;;;;28.83;12.68;;;26.40;2201.60;;;;;;4769022;29;20517;-79
2022/12/20 02:17:19;;;;;;;24.20;12.35;;;26.40;2201.60;;;;;;4768357;30;20043;-79
2022/12/20 02:20:06;;;;;;;30.40;13.80;;;26.50;2201.60;;;;;;4768955;30;20066;-81
2022/12/20 02:23:16;;;;;;;23.13;10.05;;;26.50;2201.60;;;;;;4767832;30;20024;-81
2022/12/20 02:26:11;;;;;;;29.50;12.32;;;26.40;2201.60;;;;;;4751109;30;20110;-79
2022/12/20 02:28:55;;;;;;;25.10;11.32;;;26.40;2201.60;;;;;;4753968;30;20069;-80
2022/12/20 02:31:28;;;;;;;38.00;15.50;;;26.40;2201.60;;;;;;4753820;30;20024;-81
2022/12/20 02:33:56;;;;;;;35.33;13.80;;;26.40;2201.60;;;;;;4753571;30;20036;-79
2022/12/20 02:36:22;;;;;;;29.67;12.00;;;26.40;2201.60;;;;;;4753274;30;20050;-79
2022/12/20 02:38:47;;;;;;;;;;;26.30;2201.60;;;;;;4754288;30;20438;-81
2022/12/20 02:41:22;;;;;;;26.92;12.30;;;26.30;2201.60;;;;;;4753700;30;20019;-80
2022/12/20 02:46:38;;;;;;;27.98;11.25;;;26.30;2201.60;;;;;;4769310;30;20092;-79
2022/12/20 02:49:11;;;;;;;26.75;10.43;;;26.30;2201.60;;;;;;4768512;30;20081;-80
2022/12/20 02:51:38;;;;;;;30.60;11.88;;;26.40;2201.60;;;;;;4836076;29;20030;-81
2022/12/20 02:54:04;;;;;;;23.42;11.02;;;26.30;2201.60;;;;;;4842590;29;20029;-80
2022/12/20 02:56:36;;;;;;;;;;;26.20;2201.60;;;;;;4842281;29;20025;-80
2022/12/20 02:59:15;;;;;;;27.27;10.20;;;26.20;2201.60;;;;;;4842192;29;19931;-80
2022/12/20 03:01:49;;;;;;;28.40;11.30;;;26.20;2201.60;;;;;;4842914;29;20030;-79
2022/12/20 03:04:20;;;;;;;26.42;9.70;;;26.20;2201.60;;;;;;4842611;29;20050;-81
2022/12/20 03:06:58;;;;;;;30.52;12.70;;;26.20;2201.60;;;;;;4841390;29;20652;-78
2022/12/20 03:09:24;;;;;;;21.10;9.93;;;26.20;2201.60;;;;;;4854030;29;20116;-79
2022/12/20 03:11:50;;;;;;;;;;;26.10;2201.60;;;;;;4842548;29;20105;-79
2022/12/20 03:14:16;;;;;;;28.05;12.40;;;26.20;2201.60;;;;;;4841171;29;19908;-78
2022/12/20 03:16:41;;;;;;;;;;;26.20;2201.60;;;;;;4841228;29;20118;-79
2022/12/20 03:19:07;;;;;;;24.33;12.18;;;26.20;2201.60;;;;;;4840270;29;19921;-80
2022/12/20 03:21:33;;;;;;;;;;;26.10;2201.60;;;;;;4841479;29;20037;-80
2022/12/20 03:23:58;;;;;;;28.17;11.77;;;26.10;2201.60;;;;;;4840684;29;20335;-80
2022/12/20 03:26:24;;;;;;;;;;;26.10;2201.60;;;;;;4840374;29;20057;-78
2022/12/20 03:28:50;;;;;;;22.85;11.25;;;26.10;2201.60;;;;;;4841820;29;20020;-79
2022/12/20 03:31:15;;;;;;;;;;;26.10;2201.60;;;;;;4833355;29;20038;-79
2022/12/20 03:33:41;;;;;;;25.92;12.20;;;26.10;2201.60;;;;;;4841997;29;20354;-80
2022/12/20 03:36:07;;;;;;;;;;;26.10;2201.60;;;;;;4841562;29;20091;-79
2022/12/20 03:38:32;;;;;;;19.90;10.13;;;26.10;2201.60;;;;;;4840881;29;19921;-79
2022/12/20 03:40:58;;;;;;;;;;;26.10;2201.60;;;;;;4841113;29;20462;-81
2022/12/20 03:43:24;;;;;;;28.92;12.70;;;26.10;2201.60;;;;;;4842377;29;20092;-80
2022/12/20 03:45:49;;;;;;;;;;;26.10;2201.60;;;;;;4838029;29;20037;-81
2022/12/20 03:48:15;;;;;;;27.98;11.27;;;26.00;2201.60;;;;;;4831079;29;19929;-80
2022/12/20 03:50:41;;;;;;;;;;;26.00;2201.60;;;;;;4838601;29;20091;-80
2022/12/20 03:53:06;;;;;;;27.95;11.52;;;26.00;2201.60;;;;;;4839727;29;20012;-81
2022/12/20 03:55:32;;;;;;;;;;;26.00;2201.60;;;;;;4841284;29;20030;-79
2022/12/20 03:57:58;;;;;;;26.13;11.45;;;26.00;2201.60;;;;;;4836225;29;20015;-82
2022/12/20 04:00:24;;;;;;;31.10;12.10;;;26.00;2201.60;;;;;;4832523;29;20032;-80
2022/12/20 04:02:51;;;;;;;33.67;11.80;;;26.00;2201.60;;;;;;4837522;29;20117;-78
2022/12/20 04:05:17;;;;;;;34.10;12.82;;;26.00;2201.60;;;;;;4840741;29;20033;-79
2022/12/20 04:07:44;;;;;;;;;;;26.00;2201.60;;;;;;4836869;29;20125;-80
2022/12/20 04:10:10;;;;;;;27.33;10.60;;;26.00;2201.60;;;;;;4836272;29;19941;-78
2022/12/20 04:12:36;;;;;;;27.75;11.82;;;26.00;2201.60;;;;;;4839381;29;20046;-79
2022/12/20 04:15:02;;;;;;;29.73;11.48;;;26.00;2201.60;;;;;;4842524;29;20029;-79
2022/12/20 04:17:28;;;;;;;;;;;26.00;2201.60;;;;;;4845330;29;20057;-80
2022/12/20 04:19:53;;;;;;;28.48;12.27;;;26.00;2201.60;;;;;;4844743;29;19924;-78
2022/12/20 04:22:19;;;;;;;;;;;26.00;2201.60;;;;;;4840795;29;20045;-81
2022/12/20 04:24:44;;;;;;;28.95;11.32;;;26.00;2201.60;;;;;;4839774;29;19959;-80
2022/12/20 04:27:10;;;;;;;;;;;26.00;2201.60;;;;;;4842048;29;20102;-81
2022/12/20 04:29:36;;;;;;;29.92;12.00;;;25.90;2201.60;;;;;;4842450;29;19923;-80
2022/12/20 04:32:01;;;;;;;;;;;25.90;2201.60;;;;;;4840827;29;20053;-81
2022/12/20 04:34:27;;;;;;;28.77;11.93;;;25.90;2201.60;;;;;;4853635;29;19919;-80
2022/12/20 04:36:53;;;;;;;;;;;25.90;2201.60;;;;;;4843220;29;20033;-80
2022/12/20 04:39:18;;;;;;;26.77;10.85;;;26.00;2201.60;;;;;;4842154;29;19924;-80
2022/12/20 04:41:44;;;;;;;;;;;25.90;2201.60;;;;;;4844334;29;20034;-79
2022/12/20 04:44:09;;;;;;;31.27;12.38;;;25.90;2201.60;;;;;;4839546;29;20041;-77
2022/12/20 04:46:35;;;;;;;;;;;25.90;2201.60;;;;;;4844740;29;20038;-80
2022/12/20 04:49:01;;;;;;;30.08;10.55;;;25.90;2201.60;;;;;;4844336;29;20381;-80
2022/12/20 04:51:27;;;;;;;;;;;25.90;2201.60;;;;;;4845463;29;20069;-77
2022/12/20 04:53:53;;;;;;;20.95;9.05;;;25.90;2201.60;;;;;;4838490;29;20334;-80
2022/12/20 04:56:23;;;;;;;26.60;11.38;;;25.80;2201.60;;;;;;4838045;29;20058;-80
2022/12/20 04:58:51;;;;;;;26.77;9.38;;;25.90;2201.60;;;;;;4844553;29;20082;-80
2022/12/20 05:01:18;;;;;;;21.55;10.77;;;25.80;2201.60;;;;;;4860372;29;20086;-81
2022/12/20 05:03:44;;;;;;;27.10;10.18;;;25.80;2201.60;;;;;;4845877;29;20037;-80
2022/12/20 05:06:11;;;;;;;27.52;11.50;;;25.90;2201.60;;;;;;4844701;29;20147;-81
2022/12/20 05:08:37;;;;;;;30.25;13.25;;;25.80;2201.60;;;;;;4844615;29;20045;-80
2022/12/20 05:11:04;;;;;;;32.20;13.93;;;25.90;2201.60;;;;;;4844419;29;20038;-79
2022/12/20 05:13:30;;;;;;;31.10;11.38;;;26.00;2201.60;;;;;;4844159;29;20034;-80
2022/12/20 05:15:56;;;;;;;29.63;11.48;;;25.90;2201.60;;;;;;4844250;29;20037;-79
2022/12/20 05:18:22;;;;;;;;;;;25.90;2201.60;;;;;;4844497;29;20054;-79
2022/12/20 05:26:15;;;;;;;23.45;10.10;;;25.90;2201.60;;;;;;4844224;29;19909;-79
2022/12/20 05:26:18;;;;;;;26.95;11.60;;;25.80;2201.60;;;;;;4845080;29;20044;-81
2022/12/20 05:28:44;;;;;;;;;;;25.80;2201.60;;;;;;4844926;29;20022;-81
2022/12/20 05:31:10;;;;;;;23.05;10.18;;;25.80;2201.60;;;;;;4843917;29;19908;-80
2022/12/20 05:33:35;;;;;;;;;;;25.70;2201.60;;;;;;4846096;29;20121;-81
2022/12/20 05:36:01;;;;;;;28.10;11.55;;;25.70;2201.60;;;;;;4843879;29;19995;-80
2022/12/20 05:38:27;;;;;;;;;;;25.70;2201.60;;;;;;4843325;29;20140;-82
2022/12/20 05:40:52;;;;;;;31.63;12.55;;;25.70;2201.60;;;;;;4845065;29;20361;-80
2022/12/20 05:43:19;;;;;;;;;;;25.70;2201.60;;;;;;4845723;29;20475;-81
2022/12/20 05:45:50;;;;;;;21.02;8.93;;;25.70;2201.60;;;;;;4844225;29;19998;-80
2022/12/20 05:48:17;;;;;;;27.65;12.27;;;25.70;2201.60;;;;;;4855779;29;20057;-75
2022/12/20 05:50:43;;;;;;;28.15;12.05;;;25.70;2201.60;;;;;;4846429;29;20089;-80
2022/12/20 05:53:16;;;;;;;28.75;13.05;;;25.70;2201.60;;;;;;4846810;29;20029;-80
2022/12/20 05:55:48;;;;;;;29.67;11.07;;;25.70;2201.60;;;;;;4846966;29;20451;-79
2022/12/20 05:58:14;;;;;;;34.38;12.13;;;25.70;2201.60;;;;;;4863163;29;20030;-79
2022/12/20 06:00:41;;;;;;;26.42;11.02;;;25.70;2201.60;;;;;;4846835;29;20148;-81
2022/12/20 06:03:08;;;;;;;28.88;11.32;;;25.70;2201.60;;;;;;4846526;29;20030;-81
2022/12/20 06:05:35;;;;;;;32.30;11.82;;;25.70;2201.60;;;;;;4846705;29;20099;-80
2022/12/20 06:08:02;;;;;;;29.45;12.05;;;25.70;2201.60;;;;;;4846825;29;20033;-81
2022/12/20 06:10:28;;;;;;;22.73;10.40;;;25.70;2201.60;;;;;;4846550;29;20053;-80
2022/12/20 06:12:54;;;;;;;;;;;25.60;2201.60;;;;;;4846776;29;20121;-80
2022/12/20 06:15:19;;;;;;;23.35;10.48;;;25.60;2201.60;;;;;;4847073;29;20225;-80
2022/12/20 06:17:45;;;;;;;;;;;25.60;2201.60;;;;;;4846271;29;20051;-81
2022/12/20 06:20:11;;;;;;;26.50;9.85;;;25.60;2201.60;;;;;;4846365;29;19912;-81
2022/12/20 06:22:37;;;;;;;;;;;25.70;2201.60;;;;;;4846139;29;20380;-79
2022/12/20 06:25:04;;;;;;;28.90;9.97;;;25.60;2201.60;;;;;;4846629;29;19908;-80
2022/12/20 06:27:30;;;;;;;29.48;12.27;;;25.60;2201.60;;;;;;4846254;29;20029;-82
2022/12/20 06:29:56;;;;;;;;;;;25.60;2201.60;;;;;;4846857;29;20033;-82
2022/12/20 06:32:21;;;;;;;26.95;11.43;;;25.60;2201.60;;;;;;4846115;29;19908;-80
2022/12/20 06:34:47;;;;;;;;;;;25.60;2201.60;;;;;;4846258;29;20149;-80
2022/12/20 06:37:13;;;;;;;30.08;14.32;;;25.60;2201.60;;;;;;4845822;29;19923;-81
2022/12/20 06:39:38;;;;;;;;;;;25.60;2201.60;;;;;;4846822;29;20033;-78
2022/12/20 06:42:04;;;;;;;31.23;12.15;;;25.60;2201.60;;;;;;4846203;29;19908;-80
2022/12/20 06:44:30;;;;;;;;;;;25.60;2201.60;;;;;;4845807;29;20610;-81
2022/12/20 06:46:55;;;;;;;24.35;10.98;;;25.70;2201.60;;;;;;4862011;29;19947;-79
2022/12/20 06:49:21;;;;;;;;;;;25.60;2201.60;;;;;;4846443;29;20569;-81
2022/12/20 06:51:47;;;;;;;29.17;12.43;;;25.70;2201.60;;;;;;4845458;29;19908;-80
2022/12/20 06:54:12;;;;;;;;;;;25.70;2201.60;;;;;;4846562;29;20119;-81
2022/12/20 06:56:38;;;;;;;15.88;7.25;;;25.80;2201.60;;;;;;4845557;29;19908;-80
2022/12/20 06:59:04;;;;;;;;;;;25.70;2201.60;;;;;;4845714;29;20034;-80
2022/12/20 07:01:30;;;;;;;33.28;12.15;;;25.80;2201.60;;;;;;4845176;29;19908;-80
2022/12/20 07:03:56;;;;;;;24.52;9.88;;;25.80;2201.60;;;;;;4845982;29;20145;-81
2022/12/20 07:06:22;;;;;;;;;;;25.90;2201.60;;;;;;4846021;29;20153;-81
2022/12/20 07:08:48;;;;;;;30.27;11.15;;;25.90;2201.60;;;;;;4862158;29;19915;-79
2022/12/20 07:11:13;;;;;;;;;;;25.90;2201.60;;;;;;4862635;29;20523;-79
2022/12/20 07:13:39;;;;;;;24.90;10.27;;;25.90;2201.60;;;;;;4845446;29;20251;-79
2022/12/20 07:16:04;;;;;;;;;;;26.00;2201.60;;;;;;4845888;29;20044;-78
2022/12/20 07:18:31;;;;;;;24.52;10.95;;;26.00;2201.60;;;;;;4844954;29;19927;-81
2022/12/20 07:21:01;;;;;;;27.73;12.45;;;26.00;2201.60;;;;;;4861940;29;20018;-80
2022/12/20 07:23:27;;;;;;;27.33;12.23;;;26.20;2201.60;;;;;;4845348;29;20040;-79
2022/12/20 07:25:56;;;;;;;;;;;26.20;2201.60;;;;;;4845524;29;20109;-79
2022/12/20 07:28:23;;;;;;;28.02;10.35;;;26.20;2201.60;;;;;;4845271;29;19915;-82
2022/12/20 07:30:50;;;;;;;28.10;11.75;;;26.20;2201.60;;;;;;4845108;29;20029;-80
2022/12/20 07:33:16;;;;;;;21.35;10.10;;;26.20;2201.60;;;;;;4845190;29;20094;-81
2022/12/20 07:35:42;;;;;;;;;;;26.30;2201.60;;;;;;4845907;29;20041;-82
2022/12/20 07:38:08;;;;;;;25.45;9.05;;;26.40;2201.60;;;;;;4845405;29;19923;-84
2022/12/20 07:40:34;;;;;;;;;;;26.40;2201.60;;;;;;4845347;29;20029;-81
2022/12/20 07:42:59;;;;;;;28.20;14.63;;;26.40;2201.60;;;;;;4844832;29;20285;-81
2022/12/20 07:45:25;;;;;;;;;;;26.50;2201.60;;;;;;4845299;29;20045;-80
2022/12/20 07:47:51;;;;;;;22.90;9.43;;;26.50;2201.60;;;;;;4844217;29;19920;-78
2022/12/20 07:50:16;;;;;;;;;;;26.50;2201.60;;;;;;4861592;29;20093;-79
2022/12/20 07:52:45;;;;;;;28.17;11.95;;;26.30;2201.60;;;;;;4844723;29;19931;-78
2022/12/20 07:55:13;;;;;;;23.95;9.75;;;51.20;2227.20;;;;;;4844270;29;20586;-83
2022/12/20 07:57:49;;;;;;;24.17;10.05;;;26.50;2201.60;;;;;;4844904;29;20041;-80
2022/12/20 08:00:17;;;;;;;19.42;8.68;;;51.20;2227.20;;;;;;4834046;29;20085;-80
2022/12/20 08:03:04;;;;;;;27.50;11.77;;;51.20;2227.20;;;;;;4845122;29;20037;-83
2022/12/20 08:05:31;;;;;;;18.35;7.85;;;51.20;2227.20;;;;;;4845332;29;20041;-83
2022/12/20 08:07:58;;;;;;;26.50;12.55;;;51.30;2227.20;;;;;;4843991;29;20125;-81
2022/12/20 08:10:25;;;;;;;28.17;11.32;;;51.30;2227.20;;;;;;4844706;29;20037;-82
2022/12/20 08:12:51;;;;;;;24.75;11.80;;;51.30;2227.20;;;;;;4844565;29;20116;-83
2022/12/20 08:15:18;;;;;;;25.65;12.48;;;51.40;2227.20;;;;;;4861276;29;20033;-83
2022/12/20 08:17:44;;;;;;;21.90;10.52;;;51.50;2227.20;;;;;;4861128;29;20057;-81
2022/12/20 08:20:09;;;;;;;;;;;51.40;2227.20;;;;;;4861601;29;20065;-84
2022/12/20 08:22:35;;;;;;;24.70;10.65;;;51.40;2227.20;;;;;;4860725;29;20280;-83
2022/12/20 08:25:01;;;;;;;;;;;51.40;2227.20;;;;;;4845545;29;20458;-80
2022/12/20 08:27:26;;;;;;;23.23;10.10;;;51.50;2227.20;;;;;;4844599;29;19908;-84
2022/12/20 08:29:52;;;;;;;;;;;51.50;2227.20;;;;;;4845514;29;20029;-84
2022/12/20 08:32:18;;;;;;;49.22;20.15;;;51.50;2227.20;;;;;;4844630;29;20365;-84
2022/12/20 08:34:44;;;;;;;;;;;51.70;2227.20;;;;;;4845389;29;20033;-85
2022/12/20 08:37:10;;;;;;;25.52;12.25;;;51.50;2227.20;;;;;;4844389;29;19908;-82
2022/12/20 08:39:36;;;;;;;31.98;14.25;;;51.50;2227.20;;;;;;4844918;29;20033;-79
2022/12/20 08:42:04;;;;;;;22.98;11.18;;;51.60;2227.20;;;;;;4844767;29;20029;-84
2022/12/20 08:44:30;;;;;;;26.10;10.48;;;51.70;2227.20;;;;;;4844728;29;20035;-82
2022/12/20 08:46:55;;;;;;;;;;;51.70;2227.20;;;;;;4845232;29;20037;-81
2022/12/20 08:49:21;;;;;;;21.52;9.55;;;51.70;2227.20;;;;;;4844794;29;20361;-80
2022/12/20 08:51:47;;;;;;;;;;;51.70;2227.20;;;;;;4844138;29;20038;-80
2022/12/20 08:54:12;;;;;;;19.00;9.18;;;51.80;2227.20;;;;;;4844233;29;19912;-84
2022/12/20 08:56:38;;;;;;;;;;;51.90;2227.20;;;;;;4861256;29;20022;-84
2022/12/20 08:59:04;;;;;;;22.58;11.25;;;51.80;2227.20;;;;;;4844135;29;20392;-82
2022/12/20 09:01:32;;;;;;;25.17;10.38;;;51.90;2227.20;;;;;;4847152;29;20049;-82
2022/12/20 09:03:58;;;;;;;22.42;8.95;;;51.90;2227.20;;;;;;4848180;29;20094;-80
2022/12/20 09:06:24;;;;;;;;;;;51.90;2227.20;;;;;;4844020;29;20041;-82
2022/12/20 09:08:50;;;;;;;28.08;9.95;;;51.90;2227.20;;;;;;4840112;29;19912;-80
2022/12/20 09:11:19;;;;;;;21.40;8.52;;;51.90;2227.20;;;;;;4847179;29;20035;-78
2022/12/20 09:13:47;;;;;;;27.75;12.57;;;51.90;2227.20;;;;;;4847234;29;20036;-80
2022/12/20 09:16:15;;;;;;;28.02;11.20;;;52.00;2227.20;;;;;;4847343;29;20517;-78
2022/12/20 09:18:41;;;;;;;15.43;7.30;;;52.10;2227.20;;;;;;4863760;29;20053;-77
2022/12/20 09:21:08;;;;;;;27.98;11.52;;;52.00;2227.20;;;;;;4862668;29;20355;-78
2022/12/20 09:23:35;;;;;;;34.38;10.98;;;52.10;2227.20;;;;;;4846831;29;20040;-79
2022/12/20 09:26:07;;;;;;;31.88;13.20;;;52.10;2227.20;;;;;;4847489;29;20032;-84
2022/12/20 09:28:33;;;;;;;26.83;10.18;;;76.90;2227.20;;;;;;4847002;29;20044;-77
2022/12/20 09:31:05;;;;;;;25.98;9.68;;;77.10;2227.20;;;;;;4847253;29;20026;-80
2022/12/20 09:33:32;;;;;;;32.28;12.55;;;77.10;2227.20;;;;;;4846762;29;20041;-79
2022/12/20 09:35:58;;;;;;;44.03;17.02;;;77.20;2227.20;;;;;;4846364;29;20032;-78
2022/12/20 09:38:25;;;;;;;26.42;11.02;;;77.30;2227.20;;;;;;4862930;29;20049;-77
2022/12/20 09:40:54;;;;;;;26.48;10.00;;;77.50;2227.20;;;;;;4847062;29;20026;-79
2022/12/20 09:43:20;;;;;;;19.83;10.45;;;77.50;2227.20;;;;;;4846908;29;20093;-79
2022/12/20 09:45:50;;;;;;;33.72;10.88;;;77.50;2227.20;;;;;;4846582;29;20383;-78
2022/12/20 09:48:20;;;;;;;28.58;12.45;;;77.50;2227.20;;;;;;4830667;29;20083;-79
2022/12/20 09:50:58;;;;;;;34.65;14.20;;;77.60;2227.20;;;;;;4845228;29;20069;-78
2022/12/20 09:53:35;;;;;;;49.95;18.08;;;77.70;2227.20;;;;;;4846060;29;20157;-76
2022/12/20 09:56:18;;;;;;;61.50;21.02;;;102.40;2227.20;;;;;;4846351;29;20554;-76
2022/12/20 09:59:14;;;;;;;27.60;11.77;;;102.50;2227.20;;;;;;4863049;29;20041;-79
2022/12/20 10:01:45;;;;;;;54.17;19.45;;;102.50;2227.20;;;;;;4837702;29;20046;-79
2022/12/20 10:04:24;;;;;;;59.08;21.60;;;102.60;2227.20;;;;;;4856837;29;20113;-82
2022/12/20 10:07:05;;;;;;;262.80;98.20;;;102.70;2227.20;;;;;;4863384;29;20036;-82
2022/12/20 10:09:49;;;;;;;57.70;26.08;;;102.80;2227.20;;;;;;4847804;29;20025;-81
2022/12/20 10:12:36;;;;;;;38.55;15.52;;;103.00;2227.20;;;;;;4862006;29;20502;-81
2022/12/20 10:15:02;;;;;;;23.90;10.48;;;103.00;2227.20;;;;;;4862845;29;20025;-77
2022/12/20 10:17:46;;;;;;;;;;;103.20;2227.20;;;;;;4863111;29;20041;-78
2022/12/20 10:20:27;;;;;;;25.63;10.60;;;103.30;2227.20;;;;;;4846344;29;19908;-77
2022/12/20 10:23:12;;;;;;;25.88;11.05;;;103.20;2227.20;;;;;;4862785;29;20037;-79
2022/12/20 10:25:40;;;;;;;21.80;10.77;;;103.30;2227.20;;;;;;4844529;29;20050;-80
2022/12/20 10:28:14;;;;;;;26.25;10.50;;;103.30;2227.20;;;;;;4846369;29;20085;-81
2022/12/20 10:30:41;;;;;;;21.38;10.48;;;103.30;2227.20;;;;;;4845927;29;20493;-79
2022/12/20 10:33:18;;;;;;;45.00;15.60;;;128.10;2252.80;;;;;;4846289;29;20074;-80
2022/12/20 10:35:44;;;;;;;25.10;10.45;;;103.30;2227.20;;;;;;4846089;29;20053;-81
2022/12/20 10:38:13;;;;;;;27.55;10.80;;;128.00;2252.80;;;;;;4850070;29;20049;-77
2022/12/20 10:40:40;;;;;;;24.70;8.93;;;128.00;2252.80;;;;;;4834242;29;20032;-79
2022/12/20 10:43:18;;;;;;;23.15;8.73;;;128.00;2252.80;;;;;;4845930;29;20038;-79
2022/12/20 10:45:55;;;;;;;24.15;9.18;;;128.10;2252.80;;;;;;4862396;29;20030;-79
2022/12/20 10:48:28;;;;;;;24.42;10.98;;;128.20;2252.80;;;;;;4845590;29;20582;-79
2022/12/20 10:50:59;;;;;;;24.75;10.27;;;128.40;2252.80;;;;;;4845644;29;20028;-78
2022/12/20 10:53:26;;;;;;;25.85;10.70;;;128.20;2252.80;;;;;;4862586;29;20024;-81
2022/12/20 10:55:52;;;;;;;21.27;9.30;;;128.40;2252.80;;;;;;4845844;29;20037;-77
2022/12/20 10:58:29;;;;;;;20.02;10.90;;;128.00;2252.80;;;;;;4846133;29;20070;-91
2022/12/20 11:01:05;;;;;;;17.85;8.38;;;128.30;2252.80;;;;;;4846118;29;20032;-81
2022/12/20 11:03:31;;;;;;;19.25;7.25;;;128.20;2252.80;;;;;;4845843;29;20064;-80
2022/12/20 11:06:00;;;;;;;;;;;128.30;2252.80;;;;;;4862115;29;20037;-82
2022/12/20 11:08:29;;;;;;;22.10;9.88;;;128.40;2252.80;;;;;;4845761;29;19912;-82
2022/12/20 11:11:15;;;;;;;16.30;8.32;;;128.40;2252.80;;;;;;4845681;29;20450;-81
2022/12/20 11:13:42;;;;;;;27.85;10.77;;;128.30;2252.80;;;;;;4845047;29;20041;-80
2022/12/20 11:16:28;;;;;;;22.70;9.55;;;128.40;2252.80;;;;;;4845175;29;20395;-80
2022/12/20 11:19:33;;;;;;;19.80;8.27;;;128.30;2252.80;;;;;;4861466;29;20073;-81
2022/12/20 11:22:25;;;;;;;22.40;9.55;;;128.40;2252.80;;;;;;4845458;29;20033;-78
2022/12/20 11:25:01;;;;;;;24.77;9.52;;;128.40;2252.80;;;;;;4841984;29;20112;-79
2022/12/20 11:27:39;;;;;;;17.95;8.63;;;128.40;2252.80;;;;;;4861284;29;20030;-79
2022/12/20 11:30:12;;;;;;;19.67;9.75;;;128.40;2252.80;;;;;;4845046;29;20065;-79
2022/12/20 11:32:56;;;;;;;17.75;8.05;;;128.60;2252.80;;;;;;4833088;29;20041;-79
2022/12/20 11:35:30;;;;;;;21.40;9.88;;;128.60;2252.80;;;;;;4844858;29;20021;-78
2022/12/20 11:38:08;;;;;;;19.50;9.57;;;128.60;2252.80;;;;;;4860855;29;20049;-77
2022/12/20 11:40:50;;;;;;;20.92;9.48;;;128.60;2252.80;;;;;;4844371;29;20029;-78
2022/12/20 11:43:31;;;;;;;22.85;9.85;;;128.70;2252.80;;;;;;4844338;29;20102;-80
2022/12/20 11:46:15;;;;;;;24.60;9.80;;;128.70;2252.80;;;;;;4844781;29;20026;-79
2022/12/20 11:48:55;;;;;;;19.65;8.95;;;128.70;2252.80;;;;;;4860928;29;20076;-78
2022/12/20 11:51:23;;;;;;;22.10;9.65;;;128.70;2252.80;;;;;;4844273;29;20432;-78
2022/12/20 11:54:25;;;;;;;25.08;9.38;;;128.60;2252.80;;;;;;4844434;29;20039;-78
2022/12/20 11:56:57;;;;;;;23.63;9.27;;;128.40;2252.80;;;;;;4844328;29;20104;-78
2022/12/20 11:59:30;;;;;;;16.58;8.77;;;128.50;2252.80;;;;;;4844389;29;20048;-79
2022/12/20 12:02:08;;;;;;;21.45;10.15;;;128.60;2252.80;;;;;;4833345;29;20029;-77
2022/12/20 12:04:57;;;;;;;22.20;9.25;;;128.60;2252.80;;;;;;4844322;29;20030;-78
2022/12/20 12:07:28;;;;;;;21.00;10.27;;;128.40;2252.80;;;;;;4843853;29;20140;-78
2022/12/20 12:10:18;;;;;;;20.33;9.52;;;128.30;2252.80;;;;;;4843670;29;20043;-78
2022/12/20 12:12:58;;;;;;;22.95;10.18;;;128.20;2252.80;;;;;;4860727;29;20038;-78
2022/12/20 12:15:36;;;;;;;19.13;8.73;;;128.20;2252.80;;;;;;4860631;29;20026;-79
2022/12/20 12:18:20;;;;;;;23.83;9.77;;;128.20;2252.80;;;;;;4843873;29;20098;-78
2022/12/20 12:21:04;;;;;;;20.98;10.50;;;128.10;2252.80;;;;;;4844202;29;20049;-79
2022/12/20 12:23:38;;;;;;;25.45;10.85;;;128.00;2252.80;;;;;;4844237;29;20029;-77
2022/12/20 12:26:26;;;;;;;17.05;8.18;;;128.00;2252.80;;;;;;4844121;29;20021;-78
2022/12/20 12:29:01;;;;;;;20.40;8.15;;;103.30;2227.20;;;;;;4844230;29;20030;-78
2022/12/20 12:31:36;;;;;;;26.40;10.85;;;103.30;2227.20;;;;;;4844518;29;20497;-79
2022/12/20 12:34:08;;;;;;;29.48;12.85;;;103.30;2227.20;;;;;;4844164;29;20026;-84
2022/12/20 12:36:46;;;;;;;192.13;73.18;;;128.00;2252.80;;;;;;4847254;29;20116;-80
2022/12/20 12:39:30;;;;;;;60.00;22.20;;;128.00;2252.80;;;;;;4847400;29;20153;-79
2022/12/20 12:42:29;;;;;;;50.30;22.92;;;128.00;2252.80;;;;;;4864285;29;20038;-76
2022/12/20 12:45:03;;;;;;;63.55;27.63;;;103.30;2227.20;;;;;;4784364;30;20031;-78
2022/12/20 12:47:46;;;;;;;24.25;11.60;;;103.30;2227.20;;;;;;4776769;30;20051;-78
2022/12/20 12:50:22;;;;;;;19.67;8.10;;;103.30;2227.20;;;;;;4788901;30;20084;-79